Latest Coastal Weather Observations for Adelaide Airport

IDS60701

Issued at 12:51 am CDT Friday 30 January 2015 (issued every 10 minutes, with the page automatically refreshed every 10 minutes)

About coastal observations | Map of coastal stations | Coastal observations for SA | Marine services | Other Formats
Station Details ID: 023034 Name: ADELAIDE AIRPORT Lat: -34.95 Lon: 138.52 Height: 2.0 m
Data from the previous 72 hours. | See also: Recent months at Adelaide Airport
Date/Time
CDT
Temp

°C
Wind Pressure Rain
since 9am
mm
Weather Cloud Vis
km
Sea
Height
m
Swell
Dir
 
Speed
knots
Gust
knots
hPa Trend Height
m
Period
s
Dir
30/12:30am 17.9 SE 7 9 1015.4 - 0.0 - - 10 - - - -
30/12:00am 18.3 SSE 8 12 1015.5 F 0.0 Fine Clear 30 - - - -
 
Date/Time
CDT
Temp

°C
Wind Pressure Rain
since 9am
mm
Weather Cloud Vis
km
Sea
Height
m
Swell
Dir
 
Speed
knots
Gust
knots
hPa Trend Height
m
Period
s
Dir
29/11:30pm 18.4 SSE 8 10 1015.7 - 0.0 - - 10 - - - -
29/11:00pm 18.5 SSE 11 16 1015.8 - 0.0 - - 10 - - - -
29/10:30pm 18.7 SSE 15 18 1015.9 - 0.0 - - 10 - - - -
29/10:00pm 19.1 SSE 16 20 1015.8 - 0.0 - - 10 - - - -
29/09:30pm 19.5 SSE 16 21 1015.8 - 0.0 - - 10 - - - -
29/09:00pm 20.1 SSE 16 22 1015.4 R 0.0 Fine Clear 30 - - - -
29/08:30pm 21.3 SSE 15 19 1015.3 - 0.0 - - 10 - - - -
29/08:00pm 23.1 SSE 15 19 1015.1 - 0.0 - - 10 - - - -
29/07:30pm 24.5 SSE 15 19 1014.7 - 0.0 - - 10 - - - -
29/07:00pm 25.6 SSE 15 21 1014.3 - 0.0 - - 10 - - - -
29/06:30pm 26.6 SE 15 20 1014.0 - 0.0 - - 10 - - - -
29/06:00pm 27.5 SE 16 21 1013.9 F 0.0 Fine Clear 40 - - - -
29/05:30pm 28.1 SE 15 20 1014.0 - 0.0 - - 10 - - - -
29/05:00pm 29.0 SSE 10 15 1014.1 - 0.0 - - 10 - - - -
29/04:30pm 29.1 SE 11 14 1014.4 - 0.0 - - 10 - - - -
29/04:00pm 29.5 S 15 20 1014.6 - 0.0 - - 10 - - - -
29/03:30pm 29.1 E 10 17 1015.0 - 0.0 - - 10 - - - -
29/03:00pm 29.2 E 13 17 1015.2 F 0.0 Fine Clear 35 - - - -
29/02:30pm 28.3 SSE 15 18 1015.8 - 0.0 - - 10 - - - -
29/02:00pm 28.0 ENE 9 15 1016.2 - 0.0 - - 10 - - - -
29/01:30pm 26.7 ESE 12 16 1016.4 - 0.0 - - 10 - - - -
29/01:00pm 27.1 E 8 12 1016.8 - 0.0 - - 10 - - - -
29/12:30pm 26.5 ESE 8 11 1017.1 - 0.0 - - 10 - - - -
29/12:00pm 23.8 W 9 13 1017.3 F 0.0 Fine Clear 30 - - - -
29/11:30am 23.3 W 9 10 1017.6 - 0.0 - - 10 - - - -
29/11:00am 22.6 WSW 8 11 1017.8 - 0.0 - - 10 - - - -
29/10:30am 21.2 WSW 8 11 1017.9 - 0.0 - - 10 - - - -
29/10:00am 21.6 WNW 7 11 1017.8 - 0.0 - - 10 - - - -
29/09:30am 21.2 N 5 8 1017.6 - 0.0 - - 10 - - - -
29/09:00am 21.0 ESE 6 8 1017.5 R 0.0 Fine Clear 30 - - - -
29/08:30am 19.7 ESE 12 15 1017.1 - 0.0 - - 10 - - - -
29/08:00am 18.8 ESE 13 17 1016.9 - 0.0 - - 10 - - - -
29/07:30am 18.4 ESE 18 24 1016.2 - 0.0 - - 10 - - - -
29/07:00am 18.0 E 16 21 1016.0 - 0.0 - - 10 - - - -
29/06:30am 18.0 E 13 21 1015.8 - 0.0 - - 10 - - - -
29/06:00am 18.2 E 13 18 1015.4 F 0.0 Fine Clear 30 - - - -
29/05:30am 18.5 E 15 22 1015.3 - 0.0 - - 10 - - - -
29/05:00am 18.7 E 16 21 1015.1 - 0.0 - - 10 - - - -
29/04:30am 19.0 ESE 15 21 1015.1 - 0.0 - - 10 - - - -
29/04:00am 19.2 ESE 12 19 1015.2 - 0.0 - - 10 - - - -
29/03:30am 19.2 ESE 10 18 1015.2 - 0.0 - - 10 - - - -
29/03:00am 18.8 ESE 11 17 1015.2 R 0.0 Fine Clear 30 - - - -
29/02:30am 19.0 ESE 9 17 1015.2 - 0.0 - - 10 - - - -
29/02:00am 18.8 SE 12 18 1015.3 - 0.0 - - 10 - - - -
29/01:30am 18.4 SSE 11 14 1015.5 - 0.0 - - 10 - - - -
29/01:00am 17.3 S 3 7 1015.9 - 0.0 - - 10 - - - -
29/12:30am 17.8 SSE 8 10 1015.8 - 0.0 - - 10 - - - -
29/12:00am 18.0 S 8 10 1015.9 F 0.0 Fine Clear 30 - - - -
 
Date/Time
CDT
Temp

°C
Wind Pressure Rain
since 9am
mm
Weather Cloud Vis
km
Sea
Height
m
Swell
Dir
 
Speed
knots
Gust
knots
hPa Trend Height
m
Period
s
Dir
28/11:30pm 18.1 SSE 9 11 1016.2 - 0.0 - - 10 - - - -
28/11:00pm 18.1 SSE 8 13 1016.4 - 0.0 - - 10 - - - -
28/10:30pm 18.4 S 9 13 1016.5 - 0.0 - - 10 - - - -
28/10:00pm 18.7 SSE 12 17 1016.4 - 0.0 - - 10 - - - -
28/09:30pm 18.6 S 11 17 1016.3 - 0.0 - - 10 - - - -
28/09:00pm 18.8 SSE 13 17 1016.1 F 0.0 Fine Mostly clear 25 - - - -
28/08:30pm 19.5 S 11 17 1016.3 - 0.0 - - 10 - - - -
28/08:00pm 20.6 SSE 13 19 1016.0 - 0.0 - - 10 - - - -
28/07:30pm 21.8 S 14 20 1015.7 - 0.0 - - 10 - - - -
28/07:00pm 23.1 SSE 14 17 1015.6 - 0.0 - - 10 - - - -
28/06:30pm 23.9 SE 15 19 1015.3 - 0.0 - - 10 - - - -
28/06:00pm 24.2 S 15 19 1015.1 R 0.0 Fine Clear 35 - - - -
28/05:30pm 24.0 SSE 14 20 1015.2 - 0.0 - - 10 - - - -
28/05:00pm 24.5 SE 14 19 1015.1 - 0.0 - - 10 - - - -
28/04:30pm 24.4 SSE 14 19 1015.2 - 0.0 - - 10 - - - -
28/04:00pm 24.9 SSE 11 17 1015.4 - 0.0 - - 10 - - - -
28/03:30pm 24.0 S 13 16 1015.6 - 0.0 - - 10 - - - -
28/03:00pm 24.5 SE 13 31 1015.6 F 0.0 Fine Mostly clear 35 - - - -
28/02:30pm 24.6 SE 15 25 1016.0 - 0.0 - Mostly clear 10 - - - -
28/02:27pm 23.5 SSE 15 25 1016.0 - 0.0 - Mostly clear 10 - - - -
28/02:00pm 24.3 S 10 16 1016.4 - 0.0 - Mostly clear 10 - - - -
28/01:30pm 23.2 S 13 18 1016.9 - 0.0 - Mostly clear 10 - - - -
28/01:00pm 22.9 SSE 13 19 1017.0 - 0.0 - Mostly clear 10 - - - -
28/12:30pm 22.0 SSE 13 18 1017.4 - 0.0 - Mostly clear 10 - - - -
28/12:00pm 20.8 SE 12 17 1017.4 F 0.0 Fine Mostly clear 35 - - - -
28/11:30am 20.5 ESE 13 18 1018.0 - 0.0 - Mostly clear 10 - - - -
28/11:00am 19.8 ESE 12 19 1018.3 - 0.0 - Mostly clear 10 - - - -
28/10:30am 19.0 SE 17 23 1018.5 - 0.0 - Mostly clear 10 - - - -
28/10:13am 18.4 SE 15 25 1018.5 - 0.0 - Mostly clear 10 - - - -
28/10:00am 18.4 SE 13 16 1018.4 - 0.0 - Mostly clear 10 - - - -
28/09:30am 17.7 SSE 15 19 1018.3 - 0.0 - Mostly clear 10 - - - -
28/09:00am 16.6 ESE 15 20 1018.3 R 0.0 Fine Mostly clear 30 - - - -
28/08:30am 15.9 ESE 13 18 1018.5 - 0.0 - Mostly clear 10 - - - -
28/08:00am 15.4 SE 10 15 1018.3 - 0.0 - Mostly clear 10 - - - -
28/07:30am 14.6 SE 9 15 1018.0 - 0.0 - Mostly clear 10 - - - -
28/07:00am 13.9 SE 11 20 1017.3 - 0.0 - Mostly clear 10 - - - -
28/06:30am 13.9 SE 11 21 1016.9 - 0.0 - Mostly clear 10 - - - -
28/06:00am 13.8 SE 13 21 1016.5 F 0.0 Fine Mostly clear 30 - - - -
28/05:30am 13.9 SE 11 19 1016.6 - 0.0 - Mostly clear 10 - - - -
28/05:00am 14.1 SE 12 19 1016.6 - 0.0 - Mostly clear 10 - - - -
28/04:30am 14.5 SE 8 12 1016.6 - 0.0 - Mostly clear 10 - - - -
28/04:00am 14.9 SE 11 17 1016.7 - 0.0 - Partly cloudy 10 - - - -
28/03:30am 14.8 SE 9 13 1017.1 - 0.0 - Mostly clear 10 - - - -
28/03:00am 15.1 SE 10 15 1017.0 S 0.0 Fine Mostly clear 30 - - - -
28/02:30am 15.4 SE 10 14 1017.3 - 0.0 - Mostly clear 10 - - - -
28/02:00am 16.0 SSE 11 15 1017.4 - 0.0 - Mostly clear 10 - - - -
28/01:30am 16.3 SSE 12 17 1017.7 - 0.0 - Mostly clear 10 - - - -
28/01:00am 16.0 S 9 12 1017.9 - 0.0 - Partly cloudy 10 - - - -
28/12:30am 15.7 S 7 9 1018.1 - 0.0 - Partly cloudy 10 - - - -
28/12:00am 15.9 S 7 10 1018.0 S 0.0 Fine Partly cloudy 30 - - - -
 
Date/Time
CDT
Temp

°C
Wind Pressure Rain
since 9am
mm
Weather Cloud Vis
km
Sea
Height
m
Swell
Dir
 
Speed
knots
Gust
knots
hPa Trend Height
m
Period
s
Dir
27/11:30pm 15.5 S 7 9 1018.1 - 0.0 - Mostly clear 10 - - - -
27/11:00pm 15.7 S 7 10 1018.1 - 0.0 - Mostly clear 10 - - - -
27/10:30pm 15.8 S 10 14 1018.3 - 0.0 - Mostly clear 10 - - - -
27/10:00pm 16.1 S 10 18 1018.3 - 0.0 - Mostly clear 10 - - - -
27/09:30pm 16.4 S 13 18 1018.0 - 0.0 - Mostly clear 10 - - - -
27/09:00pm 16.6 S 15 20 1017.6 S 0.0 Fine Mostly clear 30 - - - -
27/08:30pm 17.0 S 18 24 1017.3 - 0.0 - Mostly clear 10 - - - -
27/08:00pm 17.7 SSE 15 19 1017.1 - 0.0 - Mostly clear 10 - - - -
27/07:30pm 18.6 S 16 22 1016.9 - 0.0 - Partly cloudy 10 - - - -
27/07:00pm 19.5 SSE 17 21 1016.6 - 0.0 - Mostly clear 10 - - - -
27/06:49pm 19.4 SSE 15 25 1016.5 - 0.0 - Mostly clear 10 - - - -
27/06:30pm 20.0 S 16 21 1016.5 - 0.0 - Mostly clear 10 - - - -
27/06:00pm 20.2 SSE 15 19 1016.4 R 0.0 Fine Partly cloudy 30 - - - -
27/05:30pm 20.0 SSE 16 22 1016.3 - 0.0 - Partly cloudy 10 - - - -
27/05:00pm 21.2 SSW 16 21 1016.2 - 0.0 - Partly cloudy 10 - - - -
27/04:30pm 21.6 S 14 19 1016.3 - 0.0 - Partly cloudy 10 - - - -
27/04:00pm 21.4 S 18 23 1016.2 - 0.0 - Partly cloudy 10 - - - -
27/03:30pm 21.6 S 15 23 1016.1 - 0.0 - Partly cloudy 10 - - - -
27/03:00pm 21.9 SSE 15 19 1016.3 S 0.0 Fine Partly cloudy 30 - - - -
27/02:38pm 22.1 SSE 20 22 1016.4 - 0.0 - Mostly clear 10 - - - -
27/02:30pm 22.3 S 13 20 1016.5 - 0.0 - Mostly clear 10 - - - -
27/02:00pm 22.0 S 15 20 1016.7 - 0.0 - Mostly clear 10 - - - -
27/01:30pm 21.5 SE 13 16 1016.9 - 0.0 - Mostly clear 10 - - - -
27/01:00pm 21.4 SE 11 19 1017.3 - 0.0 - Partly cloudy 10 - - - -
27/12:30pm 20.6 S 13 17 1017.7 - 0.0 - Partly cloudy 10 - - - -
27/12:00pm 20.2 SSE 13 18 1017.8 F 0.0 Fine Partly cloudy 30 - - - -
27/11:30am 20.2 SE 12 18 1018.0 - 0.0 - Partly cloudy 10 - - - -
27/11:00am 20.3 SSE 12 18 1018.1 - 0.0 - Partly cloudy 10 - - - -
27/10:30am 19.3 ESE 14 18 1018.4 - 0.0 - Partly cloudy 10 - - - -
27/10:00am 19.1 SE 11 17 1018.5 - 0.0 - Mostly clear 10 - - - -
27/09:30am 18.2 SE 12 17 1018.7 - 0.0 - Mostly clear 10 - - - -
27/09:00am 17.0 ESE 10 17 1018.5 F 0.0 Fine Mostly clear 30 - - - -
27/08:30am 16.4 ESE 9 13 1018.6 - 0.0 - Mostly clear 10 - - - -
27/08:00am 15.8 ESE 8 13 1018.4 - 0.0 - Mostly clear 10 - - - -
27/07:30am 15.1 ESE 6 8 1018.2 - 0.0 - Mostly clear 10 - - - -
27/07:00am 14.1 E 6 9 1018.0 - 0.0 - - 10 - - - -
27/06:30am 13.5 ESE 7 12 1017.7 - 0.0 - - 10 - - - -
27/06:00am 13.8 ESE 10 14 1017.3 F 0.0 Fine Mostly clear 30 - - - -
27/05:30am 14.1 ESE 9 16 1017.0 - 0.0 - - 10 - - - -
27/05:00am 14.3 ESE 12 18 1016.9 - 0.0 - - 10 - - - -
27/04:30am 14.6 ESE 9 12 1016.8 - 0.0 - - 10 - - - -
27/04:00am 14.2 SE 8 13 1016.9 - 0.0 - - 10 - - - -
27/03:30am 14.1 SSE 7 11 1016.9 - 0.0 - - 10 - - - -
27/03:00am 13.9 SSE 11 14 1017.0 F 0.0 Fine Clear 30 - - - -
27/02:30am 14.2 S 7 10 1017.3 - 0.0 - - 10 - - - -
27/02:00am 13.9 S 7 10 1017.4 - 0.0 - - 10 - - - -
27/01:30am 13.7 S 7 9 1017.7 - 0.0 - - 10 - - - -
27/01:00am 13.5 S 7 8 1017.9 - 0.0 - - 10 - - - -

Other Formats:

Comma delimited format used in spreadsheet applications
http://www.bom.gov.au/fwo/IDS60701/IDS60701.94672.axf

JavaScript Object Notation format (JSON) in row-major order
http://www.bom.gov.au/fwo/IDS60701/IDS60701.94672.json